createdAt,value
2022-11-22T00:00:57.903Z,9.00
2022-11-22T00:03:25.788Z,9.04
2022-11-22T00:05:53.589Z,8.99
2022-11-22T00:08:21.631Z,8.96
2022-11-22T00:10:50.933Z,8.99
2022-11-22T00:13:20.038Z,9.02
2022-11-22T00:15:59.523Z,8.94
2022-11-22T00:18:28.361Z,9.02
2022-11-22T00:20:57.184Z,9.14
2022-11-22T00:23:25.121Z,9.16
2022-11-22T00:25:53.151Z,9.17
2022-11-22T00:28:20.978Z,9.12
2022-11-22T00:30:48.867Z,9.12
2022-11-22T00:33:16.700Z,9.06
2022-11-22T00:35:46.542Z,9.04
2022-11-22T00:38:16.900Z,9.10
2022-11-22T00:40:44.900Z,9.13
2022-11-22T00:43:12.902Z,9.04
2022-11-22T00:45:44.330Z,9.19
2022-11-22T00:48:12.646Z,9.16
2022-11-22T00:50:40.538Z,9.22
2022-11-22T00:53:08.654Z,9.31
2022-11-22T00:55:36.544Z,9.35
2022-11-22T00:58:04.514Z,9.34
2022-11-22T01:00:32.570Z,9.51
2022-11-22T01:03:00.570Z,9.53
2022-11-22T01:05:28.459Z,9.37
2022-11-22T01:07:56.628Z,9.35
2022-11-22T01:10:24.553Z,9.27
2022-11-22T01:12:52.434Z,9.33
2022-11-22T01:15:20.310Z,9.37
2022-11-22T01:17:48.181Z,9.44
2022-11-22T01:20:16.355Z,9.40
2022-11-22T01:22:44.272Z,9.35
2022-11-22T01:25:12.190Z,9.39
2022-11-22T01:27:39.998Z,9.26
2022-11-22T01:30:08.329Z,9.14
2022-11-22T01:32:37.481Z,9.24
2022-11-22T01:35:05.669Z,9.23
2022-11-22T01:37:33.597Z,9.29
2022-11-22T01:40:01.368Z,9.50
2022-11-22T01:42:55.477Z,9.55
2022-11-22T01:45:49.332Z,9.63
2022-11-22T01:48:51.576Z,9.51
2022-11-22T01:51:24.188Z,9.69
2022-11-22T01:53:55.101Z,9.63
2022-11-22T01:56:25.126Z,9.60
2022-11-22T01:58:59.144Z,9.58
2022-11-22T02:01:28.713Z,9.63
2022-11-22T02:03:59.528Z,9.75
2022-11-22T02:06:52.654Z,9.83
2022-11-22T02:09:21.734Z,10.08
2022-11-22T02:11:54.232Z,9.93
2022-11-22T02:14:26.144Z,9.90
2022-11-22T02:16:54.112Z,10.13
2022-11-22T02:19:38.131Z,10.01
2022-11-22T02:22:19.578Z,10.09
2022-11-22T02:25:12.045Z,10.02
2022-11-22T02:27:40.631Z,10.01
2022-11-22T02:30:10.467Z,9.84
2022-11-22T02:32:38.409Z,10.09
2022-11-22T02:35:23.305Z,10.03
2022-11-22T02:38:08.319Z,10.03
2022-11-22T02:40:59.918Z,10.04
2022-11-22T02:43:31.487Z,10.09
2022-11-22T02:46:07.270Z,10.04
2022-11-22T02:48:40.676Z,9.96
2022-11-22T02:51:08.821Z,10.08
2022-11-22T02:53:36.886Z,10.02
2022-11-22T02:56:05.106Z,10.09
2022-11-22T02:58:33.071Z,10.16
2022-11-22T03:01:01.323Z,10.09
2022-11-22T03:03:29.282Z,10.19
2022-11-22T03:05:57.137Z,10.46
2022-11-22T03:08:24.962Z,9.94
2022-11-22T03:10:52.882Z,10.17
2022-11-22T03:13:20.983Z,10.03
2022-11-22T03:15:48.997Z,10.17
2022-11-22T03:18:19.574Z,10.18
2022-11-22T03:20:47.471Z,10.27
2022-11-22T03:23:15.439Z,10.23
2022-11-22T03:25:43.854Z,10.02
2022-11-22T03:28:11.947Z,9.76
2022-11-22T03:30:41.486Z,9.76
2022-11-22T03:33:09.867Z,9.66
2022-11-22T03:35:38.089Z,9.75
2022-11-22T03:38:06.141Z,9.84
2022-11-22T03:40:34.807Z,9.75
2022-11-22T03:43:04.591Z,9.68
2022-11-22T03:45:34.209Z,9.67
2022-11-22T03:48:02.136Z,9.93
2022-11-22T03:50:30.172Z,10.02
2022-11-22T03:52:58.138Z,10.05
2022-11-22T03:55:26.144Z,10.20
2022-11-22T03:57:54.247Z,10.26
2022-11-22T04:00:22.333Z,10.03
2022-11-22T04:02:51.892Z,10.03
2022-11-22T04:05:19.742Z,9.90
2022-11-22T04:07:47.734Z,10.04
2022-11-22T04:10:19.317Z,9.93
2022-11-22T04:12:50.019Z,9.97
2022-11-22T04:15:18.060Z,10.07
2022-11-22T04:17:46.414Z,9.78
2022-11-22T04:20:36.914Z,9.79
2022-11-22T04:23:10.099Z,9.81
2022-11-22T04:25:42.385Z,9.70
2022-11-22T04:28:11.824Z,9.75
2022-11-22T04:30:58.660Z,9.86
2022-11-22T04:33:26.816Z,9.74
2022-11-22T04:35:55.235Z,9.63
2022-11-22T04:38:25.931Z,9.57
2022-11-22T04:40:54.136Z,9.65
2022-11-22T04:43:41.779Z,9.69
2022-11-22T04:46:10.082Z,9.79
2022-11-22T04:48:38.074Z,9.77
2022-11-22T04:51:25.809Z,9.71
2022-11-22T04:53:53.825Z,9.65
2022-11-22T04:56:21.721Z,9.60
2022-11-22T04:58:51.612Z,9.57
2022-11-22T05:01:20.241Z,9.68
2022-11-22T05:03:48.306Z,9.80
2022-11-22T05:06:16.399Z,9.76
2022-11-22T05:08:44.212Z,9.78
2022-11-22T05:11:12.611Z,9.93
2022-11-22T05:13:42.084Z,9.97
2022-11-22T05:16:12.653Z,9.87
2022-11-22T05:18:41.311Z,9.87
2022-11-22T05:21:14.692Z,10.02
2022-11-22T05:23:54.669Z,9.89
2022-11-22T05:26:28.633Z,9.98
2022-11-22T05:29:02.792Z,10.06
2022-11-22T05:31:33.004Z,10.13
2022-11-22T05:34:00.961Z,10.05
2022-11-22T05:36:33.060Z,9.94
2022-11-22T05:39:01.645Z,10.01
2022-11-22T05:41:29.584Z,9.95
2022-11-22T05:43:58.247Z,10.08
2022-11-22T05:46:29.321Z,10.22
2022-11-22T05:48:58.847Z,10.16
2022-11-22T05:51:34.032Z,10.26
2022-11-22T05:54:03.574Z,10.32
2022-11-22T05:56:33.324Z,10.38
2022-11-22T05:59:03.063Z,10.18
2022-11-22T06:01:34.227Z,10.27
2022-11-22T06:04:03.003Z,10.26
2022-11-22T06:06:30.877Z,10.13
2022-11-22T06:08:59.933Z,10.20
2022-11-22T06:11:28.814Z,10.27
2022-11-22T06:14:03.589Z,10.24
2022-11-22T06:16:31.687Z,10.30
2022-11-22T06:19:00.554Z,10.22
2022-11-22T06:21:29.140Z,10.32
2022-11-22T06:23:57.144Z,10.22
2022-11-22T06:26:26.392Z,10.25
2022-11-22T06:28:54.882Z,10.17
2022-11-22T06:31:25.560Z,10.20
2022-11-22T06:33:55.560Z,10.15
2022-11-22T06:36:25.935Z,9.97
2022-11-22T06:38:56.496Z,9.95
2022-11-22T06:41:26.816Z,9.87
2022-11-22T06:43:57.679Z,9.85
2022-11-22T06:46:27.838Z,9.74
2022-11-22T06:48:55.715Z,9.57
2022-11-22T06:51:25.829Z,9.48
2022-11-22T06:53:57.142Z,9.56
2022-11-22T06:56:30.751Z,9.44
2022-11-22T06:59:04.083Z,9.24
2022-11-22T07:01:33.806Z,9.44
2022-11-22T07:04:03.747Z,9.33
2022-11-22T07:06:35.216Z,9.29
2022-11-22T07:09:07.058Z,9.37
2022-11-22T07:11:35.285Z,9.29
2022-11-22T07:14:08.811Z,9.10
2022-11-22T07:16:38.221Z,9.25
2022-11-22T07:19:07.077Z,9.30
2022-11-22T07:21:37.614Z,9.31
2022-11-22T07:24:11.359Z,9.26
2022-11-22T07:26:40.000Z,9.26
2022-11-22T07:29:08.191Z,9.42
2022-11-22T07:31:36.376Z,9.35
2022-11-22T07:34:04.361Z,9.33
2022-11-22T07:36:32.510Z,9.28
2022-11-22T07:39:00.733Z,9.39
2022-11-22T07:41:28.691Z,9.24
2022-11-22T07:43:56.682Z,9.27
2022-11-22T07:46:31.600Z,9.37
2022-11-22T07:49:01.718Z,9.26
2022-11-22T07:51:29.988Z,9.28
2022-11-22T07:53:59.079Z,9.27
2022-11-22T07:56:29.522Z,9.28
2022-11-22T07:58:57.732Z,9.46
2022-11-22T08:01:25.884Z,9.36
2022-11-22T08:03:54.602Z,9.40
2022-11-22T08:06:22.758Z,9.31
2022-11-22T08:08:51.104Z,9.35
2022-11-22T08:11:19.172Z,9.32
2022-11-22T08:13:47.053Z,9.37
2022-11-22T08:16:16.957Z,9.45
2022-11-22T08:18:49.561Z,9.41
2022-11-22T08:21:19.031Z,9.57
2022-11-22T08:23:48.516Z,9.78
2022-11-22T08:26:18.455Z,9.75
2022-11-22T08:28:46.402Z,9.82
2022-11-22T08:31:17.079Z,9.67
2022-11-22T08:33:45.136Z,9.68
2022-11-22T08:36:12.919Z,9.71
2022-11-22T08:38:41.763Z,9.74
2022-11-22T08:41:10.198Z,9.86
2022-11-22T08:43:38.412Z,9.82
2022-11-22T08:46:06.596Z,9.93
2022-11-22T08:48:36.631Z,9.94
2022-11-22T08:51:07.550Z,9.94
2022-11-22T08:53:39.014Z,10.03
2022-11-22T08:56:09.990Z,9.99
2022-11-22T08:58:38.856Z,10.02
2022-11-22T09:01:13.891Z,9.92
2022-11-22T09:03:43.226Z,9.99
2022-11-22T09:09:30.095Z,9.99
2022-11-22T09:11:51.015Z,10.00
2022-11-22T09:14:18.894Z,9.91
2022-11-22T09:16:46.721Z,10.04
2022-11-22T09:19:14.620Z,9.94
2022-11-22T09:21:42.512Z,9.93
2022-11-22T09:24:10.605Z,9.91
2022-11-22T09:26:38.488Z,9.94
2022-11-22T09:29:06.465Z,10.00
2022-11-22T09:31:34.556Z,9.87
2022-11-22T09:34:02.519Z,10.00
2022-11-22T09:36:31.111Z,9.92
2022-11-22T09:38:59.753Z,9.82
2022-11-22T09:41:52.314Z,10.04
2022-11-22T09:44:57.093Z,10.09
2022-11-22T09:47:37.244Z,10.02
2022-11-22T09:50:30.744Z,9.95
2022-11-22T09:53:24.350Z,9.87
2022-11-22T09:55:57.691Z,9.81
2022-11-22T09:58:40.463Z,9.85
2022-11-22T10:01:29.397Z,9.81
2022-11-22T10:04:03.061Z,9.71
2022-11-22T10:06:43.630Z,9.90
2022-11-22T10:09:34.834Z,9.93
2022-11-22T10:12:07.227Z,9.83
2022-11-22T10:14:53.475Z,9.82
2022-11-22T10:17:24.533Z,9.87
2022-11-22T10:20:13.799Z,9.75
2022-11-22T10:22:41.813Z,9.65
2022-11-22T10:25:22.215Z,9.61
2022-11-22T10:28:10.706Z,9.48
2022-11-22T10:30:45.106Z,9.45
2022-11-22T10:33:19.040Z,9.54
2022-11-22T10:36:16.455Z,9.54
2022-11-22T10:38:58.476Z,9.62
2022-11-22T10:41:32.431Z,9.44
2022-11-22T10:44:37.071Z,9.28
2022-11-22T10:47:34.242Z,9.40
2022-11-22T10:50:23.089Z,9.32
2022-11-22T10:52:57.092Z,9.37
2022-11-22T10:55:43.373Z,9.41
2022-11-22T10:58:20.856Z,9.32
2022-11-22T11:00:57.567Z,9.38
2022-11-22T11:03:35.517Z,9.28
2022-11-22T11:06:33.388Z,9.53
2022-11-22T11:11:52.401Z,9.57
2022-11-22T11:14:34.897Z,9.46
2022-11-22T11:17:03.503Z,9.51
2022-11-22T11:19:37.804Z,9.59
2022-11-22T11:22:08.460Z,9.59
2022-11-22T11:24:41.568Z,9.57
2022-11-22T11:27:11.707Z,9.64
2022-11-22T11:30:02.176Z,9.49
2022-11-22T11:32:51.586Z,9.60
2022-11-22T11:35:22.399Z,9.71
2022-11-22T11:37:50.474Z,9.65
2022-11-22T11:40:29.914Z,9.51
2022-11-22T11:43:20.465Z,9.56
2022-11-22T11:45:50.939Z,9.69
2022-11-22T11:48:28.986Z,9.67
2022-11-22T11:51:13.176Z,9.76
2022-11-22T11:54:01.991Z,9.62
2022-11-22T11:56:46.139Z,9.74
2022-11-22T11:59:17.529Z,9.65
2022-11-22T12:02:06.781Z,9.71
2022-11-22T12:04:48.909Z,9.69
2022-11-22T12:07:18.729Z,9.72
2022-11-22T12:09:49.609Z,9.85
2022-11-22T12:12:29.973Z,9.80
2022-11-22T12:15:29.640Z,9.76
2022-11-22T12:18:25.499Z,9.83
2022-11-22T12:21:08.182Z,9.86
2022-11-22T12:23:51.336Z,9.88
2022-11-22T12:26:21.400Z,9.92
2022-11-22T12:28:50.753Z,9.95
2022-11-22T12:31:24.677Z,9.95
2022-11-22T12:34:01.039Z,10.00
2022-11-22T12:36:47.597Z,9.97
2022-11-22T12:39:20.387Z,9.88
2022-11-22T12:41:51.794Z,10.04
2022-11-22T12:44:21.705Z,9.90
2022-11-22T12:47:00.424Z,9.80
2022-11-22T12:49:35.452Z,9.89
2022-11-22T12:52:32.963Z,9.92
2022-11-22T12:55:29.606Z,9.92
2022-11-22T12:58:13.033Z,9.80
2022-11-22T13:01:00.190Z,9.76
2022-11-22T13:03:36.005Z,9.79
2022-11-22T13:06:08.120Z,9.75
2022-11-22T13:08:42.804Z,9.72
2022-11-22T13:11:19.832Z,9.76
2022-11-22T13:13:53.744Z,9.70
2022-11-22T13:16:22.080Z,9.66
2022-11-22T13:18:57.484Z,9.68
2022-11-22T13:21:51.206Z,9.71
2022-11-22T13:25:06.236Z,9.63
2022-11-22T13:27:39.752Z,9.48
2022-11-22T13:30:29.908Z,9.41
2022-11-22T13:33:01.359Z,9.40
2022-11-22T13:35:39.600Z,9.38
2022-11-22T13:38:16.813Z,9.49
2022-11-22T13:40:46.537Z,9.47
2022-11-22T13:43:21.578Z,9.57
2022-11-22T13:46:05.949Z,9.52
2022-11-22T13:48:43.292Z,9.49
2022-11-22T13:51:20.269Z,9.45
2022-11-22T13:53:49.819Z,9.41
2022-11-22T13:56:20.875Z,9.40
2022-11-22T13:58:51.397Z,9.46
2022-11-22T14:01:34.873Z,9.45
2022-11-22T14:04:27.003Z,9.46
2022-11-22T14:07:10.098Z,9.45
2022-11-22T14:09:53.843Z,9.40
2022-11-22T14:12:42.096Z,9.38
2022-11-22T14:15:19.992Z,9.35
2022-11-22T14:18:16.032Z,9.40
2022-11-22T14:21:04.802Z,9.31
2022-11-22T14:24:03.845Z,9.40
2022-11-22T14:27:06.066Z,9.29
2022-11-22T14:29:54.037Z,9.35
2022-11-22T14:32:24.434Z,9.35
2022-11-22T14:35:05.121Z,9.53
2022-11-22T14:37:33.071Z,9.51
2022-11-22T14:40:07.681Z,9.47
2022-11-22T14:42:40.276Z,9.60
2022-11-22T14:45:12.304Z,9.53
2022-11-22T14:47:44.146Z,9.57
2022-11-22T14:50:21.021Z,9.50
2022-11-22T14:52:49.810Z,9.60
2022-11-22T14:55:31.499Z,9.59
2022-11-22T14:58:03.728Z,9.62
2022-11-22T15:01:12.283Z,9.74
2022-11-22T15:09:19.457Z,9.58
2022-11-22T15:09:20.996Z,9.73
2022-11-22T15:10:34.544Z,9.75
2022-11-22T15:13:52.938Z,9.74
2022-11-22T15:59:43.782Z,10.17
2022-11-22T16:02:32.494Z,10.21
2022-11-22T16:06:05.400Z,10.27
2022-11-22T16:07:53.743Z,10.18
2022-11-22T16:10:33.679Z,10.20
2022-11-22T16:13:26.588Z,10.32
2022-11-22T16:16:04.443Z,10.24
2022-11-22T16:18:33.086Z,10.34
2022-11-22T16:21:07.755Z,10.38
2022-11-22T16:23:38.178Z,10.47
2022-11-22T16:26:22.236Z,10.41
2022-11-22T16:28:52.005Z,10.48
2022-11-22T16:31:19.933Z,10.52
2022-11-22T16:33:48.725Z,10.57
2022-11-22T16:36:18.379Z,10.61
2022-11-22T16:38:50.962Z,10.56
2022-11-22T16:41:20.980Z,10.57
2022-11-22T16:43:52.371Z,10.59
2022-11-22T16:46:21.593Z,10.61
2022-11-22T16:48:51.440Z,10.64
2022-11-22T16:51:30.821Z,10.55
2022-11-22T16:54:08.221Z,9.92
2022-11-22T16:56:36.033Z,9.58
2022-11-22T16:59:09.679Z,9.45
2022-11-22T17:01:44.245Z,9.16
2022-11-22T17:04:22.355Z,9.19
2022-11-22T17:06:50.989Z,8.91
2022-11-22T17:09:18.968Z,9.01
2022-11-22T17:11:47.096Z,9.20
2022-11-22T17:14:16.752Z,9.27
2022-11-22T17:16:48.089Z,9.11
2022-11-22T17:19:51.393Z,9.10
2022-11-22T17:22:08.756Z,9.00
2022-11-22T17:24:36.618Z,9.06
2022-11-22T17:27:04.791Z,8.81
2022-11-22T17:29:49.725Z,9.02
2022-11-22T17:32:19.028Z,9.25
2022-11-22T17:34:47.009Z,9.06
2022-11-22T17:37:15.443Z,9.00
2022-11-22T17:39:43.379Z,9.20
2022-11-22T17:42:12.190Z,8.99
2022-11-22T17:44:40.011Z,9.10
2022-11-22T17:47:08.936Z,9.11
2022-11-22T17:49:36.696Z,9.10
2022-11-22T17:52:04.728Z,9.18
2022-11-22T17:54:32.529Z,9.24
2022-11-22T17:57:00.509Z,9.30
2022-11-22T17:59:29.053Z,9.24
2022-11-22T18:01:57.923Z,9.36
2022-11-22T18:04:25.754Z,9.16
2022-11-22T18:06:53.594Z,8.97
2022-11-22T18:09:21.329Z,9.01
2022-11-22T18:11:49.240Z,9.23
2022-11-22T18:14:17.577Z,9.10
2022-11-22T18:16:45.267Z,9.12
2022-11-22T18:19:13.220Z,9.14
2022-11-22T18:21:41.065Z,9.17
2022-11-22T18:24:08.974Z,9.19
2022-11-22T18:26:39.928Z,9.23
2022-11-22T18:31:58.062Z,9.33
2022-11-22T18:34:26.045Z,9.43
2022-11-22T18:36:56.433Z,9.44
2022-11-22T18:39:28.754Z,9.43
2022-11-22T18:41:56.972Z,9.40
2022-11-22T18:44:24.755Z,9.44
2022-11-22T18:46:53.162Z,9.40
2022-11-22T18:49:21.148Z,9.39
2022-11-22T18:51:49.196Z,9.15
2022-11-22T18:54:18.207Z,9.20
2022-11-22T18:56:46.056Z,9.27
2022-11-22T18:59:14.262Z,9.35
2022-11-22T19:01:42.461Z,9.36
2022-11-22T19:04:14.330Z,9.39
2022-11-22T19:06:43.779Z,9.18
2022-11-22T19:09:11.899Z,9.31
2022-11-22T19:11:40.329Z,9.46
2022-11-22T19:14:08.618Z,9.57
2022-11-22T19:16:36.401Z,9.23
2022-11-22T19:19:04.305Z,9.44
2022-11-22T19:21:32.117Z,9.55
2022-11-22T19:24:00.036Z,9.45
2022-11-22T19:26:28.724Z,9.53
2022-11-22T19:28:58.001Z,9.52
2022-11-22T19:31:29.715Z,9.55
2022-11-22T19:33:58.701Z,9.48
2022-11-22T19:36:33.384Z,9.59
2022-11-22T19:39:05.867Z,9.67
2022-11-22T19:41:33.936Z,9.62
2022-11-22T19:44:02.154Z,9.54
2022-11-22T19:46:30.585Z,9.43
2022-11-22T19:48:59.597Z,9.43
2022-11-22T19:51:29.887Z,9.57
2022-11-22T19:54:00.095Z,9.49
2022-11-22T19:56:31.466Z,9.65
2022-11-22T19:59:01.128Z,9.61
2022-11-22T20:01:31.542Z,9.52
2022-11-22T20:04:04.871Z,9.67
2022-11-22T20:06:34.003Z,9.46
2022-11-22T20:09:06.784Z,9.57
2022-11-22T20:11:34.843Z,9.54
2022-11-22T20:14:02.967Z,9.74
2022-11-22T20:16:32.279Z,9.81
2022-11-22T20:19:04.862Z,9.85
2022-11-22T20:21:34.022Z,9.65
2022-11-22T20:24:07.150Z,9.35
2022-11-22T20:26:38.156Z,9.48
2022-11-22T20:29:12.032Z,9.48
2022-11-22T20:31:41.304Z,9.54
2022-11-22T20:34:10.184Z,9.58
2022-11-22T20:36:38.002Z,9.48
2022-11-22T20:39:10.684Z,9.16
2022-11-22T20:41:39.724Z,9.31
2022-11-22T20:44:12.348Z,9.41
2022-11-22T20:46:41.049Z,9.35
2022-11-22T20:49:09.162Z,9.48
2022-11-22T20:51:42.901Z,9.61
2022-11-22T20:54:13.155Z,9.65
2022-11-22T20:56:41.984Z,9.62
2022-11-22T20:59:10.451Z,9.58
2022-11-22T21:01:38.597Z,9.59
2022-11-22T21:04:08.430Z,9.51
2022-11-22T21:06:36.735Z,9.57
2022-11-22T21:09:04.538Z,9.54
2022-11-22T21:11:32.401Z,9.48
2022-11-22T21:14:00.358Z,9.44
2022-11-22T21:16:29.992Z,9.41
2022-11-22T21:19:05.039Z,9.49
2022-11-22T21:21:35.899Z,9.47
2022-11-22T21:24:05.458Z,9.38
2022-11-22T21:26:33.920Z,9.48
2022-11-22T21:29:04.361Z,9.50
2022-11-22T21:31:32.113Z,9.51
2022-11-22T21:33:59.927Z,9.39
2022-11-22T21:36:27.647Z,9.45
2022-11-22T21:38:55.338Z,9.39
2022-11-22T21:41:40.234Z,9.36
2022-11-22T21:44:09.626Z,9.21
2022-11-22T21:46:37.769Z,9.28
2022-11-22T21:49:05.833Z,9.30
2022-11-22T21:51:33.705Z,9.20
2022-11-22T21:54:02.523Z,9.20
2022-11-22T21:56:30.565Z,9.16
2022-11-22T21:58:58.431Z,9.18
2022-11-22T22:01:26.744Z,9.09
2022-11-22T22:03:54.868Z,9.07
2022-11-22T22:06:22.807Z,9.20
2022-11-22T22:08:50.591Z,9.13
2022-11-22T22:11:18.379Z,9.24
2022-11-22T22:13:46.121Z,9.26
2022-11-22T22:16:19.475Z,9.35
2022-11-22T22:18:47.700Z,9.22
2022-11-22T22:21:17.698Z,9.20
2022-11-22T22:23:46.412Z,9.23
2022-11-22T22:26:17.132Z,9.29
2022-11-22T22:28:46.098Z,9.02
2022-11-22T22:31:17.419Z,8.87
2022-11-22T22:33:45.884Z,8.86
2022-11-22T22:36:14.103Z,8.96
2022-11-22T22:38:41.993Z,9.01
2022-11-22T22:41:11.619Z,9.18
2022-11-22T22:43:44.257Z,9.13
2022-11-22T22:46:15.254Z,9.03
2022-11-22T22:48:43.975Z,9.05
2022-11-22T22:51:19.473Z,9.01
2022-11-22T22:53:48.056Z,9.03
2022-11-22T22:56:17.785Z,9.06
2022-11-22T22:58:46.555Z,9.18
2022-11-22T23:01:20.317Z,9.10
2022-11-22T23:03:53.202Z,9.06
2022-11-22T23:06:25.463Z,8.89
2022-11-22T23:08:54.407Z,9.00
2022-11-22T23:11:44.476Z,8.99
2022-11-22T23:14:14.202Z,9.00
2022-11-22T23:16:42.023Z,9.12
2022-11-22T23:19:10.240Z,9.21
2022-11-22T23:21:39.137Z,9.24
2022-11-22T23:24:07.845Z,9.08
2022-11-22T23:26:35.991Z,9.33
2022-11-22T23:29:05.056Z,9.27
2022-11-22T23:31:33.270Z,9.33
2022-11-22T23:34:01.599Z,9.23
2022-11-22T23:36:29.661Z,8.93
2022-11-22T23:38:57.681Z,8.93
2022-11-22T23:41:25.957Z,9.00
2022-11-22T23:43:56.015Z,9.17
2022-11-22T23:46:27.050Z,9.24
2022-11-22T23:48:57.176Z,9.09
2022-11-22T23:51:26.793Z,9.07
2022-11-22T23:53:56.202Z,9.08
2022-11-22T23:56:24.948Z,9.13
2022-11-22T23:58:53.539Z,9.07
